createdAt,value
2019-03-26T00:00:42.456Z,4.92
2019-03-26T00:06:04.617Z,4.80
2019-03-26T00:11:26.501Z,5.03
2019-03-26T00:16:48.856Z,5.10
2019-03-26T00:22:11.140Z,4.20
2019-03-26T00:27:33.143Z,4.03
2019-03-26T00:32:57.051Z,4.05
2019-03-26T00:38:19.162Z,4.83
2019-03-26T00:43:41.373Z,4.50
2019-03-26T00:49:03.719Z,5.35
2019-03-26T00:54:25.989Z,3.72
2019-03-26T00:59:48.489Z,3.80
2019-03-26T01:05:10.778Z,4.30
2019-03-26T01:10:33.024Z,4.47
2019-03-26T01:15:55.348Z,4.40
2019-03-26T01:21:17.366Z,4.05
2019-03-26T01:26:40.054Z,4.20
2019-03-26T01:32:02.186Z,4.10
2019-03-26T01:37:24.630Z,4.10
2019-03-26T01:42:48.066Z,3.98
2019-03-26T01:48:09.975Z,4.25
2019-03-26T01:53:32.349Z,3.87
2019-03-26T01:58:54.820Z,4.05
2019-03-26T02:04:17.632Z,3.60
2019-03-26T02:09:39.750Z,3.80
2019-03-26T02:15:02.408Z,3.90
2019-03-26T02:20:24.347Z,4.20
2019-03-26T02:25:46.442Z,3.95
2019-03-26T02:31:08.276Z,3.70
2019-03-26T02:36:30.221Z,4.40
2019-03-26T02:41:52.627Z,3.90
2019-03-26T02:47:14.769Z,3.65
2019-03-26T02:52:36.982Z,3.87
2019-03-26T02:57:58.999Z,4.50
2019-03-26T03:03:29.645Z,4.60
2019-03-26T03:08:51.705Z,3.77
2019-03-26T03:14:14.008Z,3.95
2019-03-26T03:19:35.824Z,5.33
2019-03-26T03:24:58.497Z,5.75
2019-03-26T03:30:20.809Z,4.20
2019-03-26T03:35:51.880Z,5.85
2019-03-26T03:41:07.710Z,3.70
2019-03-26T03:46:30.385Z,3.90
2019-03-26T03:51:53.689Z,3.80
2019-03-26T03:57:17.325Z,3.85
2019-03-26T04:02:39.369Z,6.10
2019-03-26T04:08:01.551Z,4.15
2019-03-26T04:13:23.800Z,5.70
2019-03-26T04:18:45.975Z,3.77
2019-03-26T04:24:07.897Z,4.10
2019-03-26T04:29:30.389Z,4.13
2019-03-26T04:34:52.583Z,7.28
2019-03-26T04:40:14.897Z,5.12
2019-03-26T04:45:37.365Z,5.22
2019-03-26T04:50:59.064Z,4.53
2019-03-26T04:56:22.647Z,5.53
2019-03-26T05:01:45.081Z,4.92
2019-03-26T05:07:06.968Z,6.50
2019-03-26T05:12:29.511Z,6.10
2019-03-26T05:17:51.781Z,7.05
2019-03-26T05:23:14.649Z,7.78
2019-03-26T05:28:36.858Z,7.95
2019-03-26T05:33:58.875Z,7.10
2019-03-26T05:39:23.195Z,8.48
2019-03-26T05:44:45.166Z,11.83
2019-03-26T05:50:09.352Z,10.82
2019-03-26T05:55:31.909Z,14.30
2019-03-26T06:00:54.114Z,14.63
2019-03-26T06:06:15.948Z,13.50
2019-03-26T06:11:38.132Z,10.68
2019-03-26T06:17:00.226Z,13.70
2019-03-26T06:22:22.368Z,13.58
2019-03-26T06:27:44.285Z,12.80
2019-03-26T06:33:06.254Z,11.60
2019-03-26T06:38:27.954Z,12.47
2019-03-26T06:43:49.762Z,10.20
2019-03-26T06:49:11.752Z,11.63
2019-03-26T06:54:34.012Z,11.70
2019-03-26T06:59:56.921Z,11.33
2019-03-26T07:05:18.982Z,11.57
2019-03-26T07:10:41.010Z,12.55
2019-03-26T07:16:03.355Z,11.25
2019-03-26T07:21:25.345Z,13.58
2019-03-26T07:26:47.855Z,14.53
2019-03-26T07:32:09.853Z,13.13
2019-03-26T07:37:44.197Z,12.85
2019-03-26T07:42:55.887Z,11.57
2019-03-26T07:48:17.851Z,12.93
2019-03-26T07:53:39.993Z,15.15
2019-03-26T07:59:02.432Z,13.65
2019-03-26T08:04:24.534Z,9.50
2019-03-26T08:09:46.893Z,11.85
2019-03-26T08:15:09.209Z,12.15
2019-03-26T08:20:32.581Z,11.63
2019-03-26T08:25:55.025Z,13.32
2019-03-26T08:31:17.412Z,11.75
2019-03-26T08:36:39.524Z,12.35
2019-03-26T08:42:01.249Z,11.35
2019-03-26T08:47:23.939Z,11.75
2019-03-26T08:52:46.045Z,11.97
2019-03-26T08:58:08.329Z,11.65
2019-03-26T09:03:30.605Z,11.60
2019-03-26T09:08:53.272Z,11.95
2019-03-26T09:14:15.343Z,11.85
2019-03-26T09:19:37.716Z,14.05
2019-03-26T09:24:59.822Z,12.20
2019-03-26T09:30:22.315Z,12.73
2019-03-26T09:35:44.565Z,12.58
2019-03-26T09:41:06.875Z,14.80
2019-03-26T09:46:29.497Z,12.37
2019-03-26T09:51:51.744Z,11.43
2019-03-26T09:57:13.864Z,12.05
2019-03-26T10:02:36.320Z,11.97
2019-03-26T10:07:59.110Z,12.35
2019-03-26T10:13:21.452Z,10.03
2019-03-26T10:18:43.485Z,10.32
2019-03-26T10:24:05.494Z,9.85
2019-03-26T10:29:30.501Z,8.30
2019-03-26T10:34:52.043Z,10.63
2019-03-26T10:40:22.832Z,9.93
2019-03-26T10:45:45.294Z,9.63
2019-03-26T10:51:07.305Z,10.70
2019-03-26T10:56:32.510Z,10.65
2019-03-26T11:01:53.854Z,9.58
2019-03-26T11:07:15.584Z,9.55
2019-03-26T11:12:37.642Z,9.68
2019-03-26T11:17:59.744Z,9.10
2019-03-26T11:23:21.947Z,9.10
2019-03-26T11:28:44.874Z,9.38
2019-03-26T11:34:07.177Z,8.95
2019-03-26T11:39:34.719Z,11.78
2019-03-26T11:44:59.391Z,10.10
2019-03-26T11:50:21.866Z,8.93
2019-03-26T11:55:43.893Z,9.28
2019-03-26T12:01:05.928Z,8.85
2019-03-26T12:06:28.016Z,8.73
2019-03-26T12:11:50.014Z,8.25
2019-03-26T12:17:14.787Z,8.50
2019-03-26T12:22:36.399Z,8.53
2019-03-26T12:27:58.430Z,8.95
2019-03-26T12:33:20.822Z,7.35
2019-03-26T12:38:44.186Z,8.10
2019-03-26T12:44:06.706Z,14.03
2019-03-26T12:49:28.892Z,7.50
2019-03-26T12:54:51.330Z,9.08
2019-03-26T13:00:13.882Z,8.15
2019-03-26T13:05:36.927Z,7.72
2019-03-26T13:11:00.899Z,8.70
2019-03-26T13:16:23.487Z,7.83
2019-03-26T13:21:47.838Z,7.47
2019-03-26T13:27:10.304Z,8.15
2019-03-26T13:32:33.151Z,8.08
2019-03-26T13:37:55.526Z,8.98
2019-03-26T13:43:17.751Z,10.60
2019-03-26T13:48:39.975Z,9.25
2019-03-26T13:54:02.141Z,8.80
2019-03-26T13:59:24.320Z,8.68
2019-03-26T14:04:46.599Z,8.48
2019-03-26T14:10:11.891Z,9.20
2019-03-26T14:15:34.210Z,8.48
2019-03-26T14:20:56.111Z,9.98
2019-03-26T14:26:18.664Z,10.32
2019-03-26T14:31:40.795Z,11.85
2019-03-26T14:37:03.203Z,12.85
2019-03-26T14:42:25.302Z,11.28
2019-03-26T14:47:47.778Z,13.58
2019-03-26T14:53:10.058Z,13.03
2019-03-26T14:58:31.866Z,12.50
2019-03-26T15:03:54.549Z,12.73
2019-03-26T15:09:17.055Z,9.60
2019-03-26T15:14:39.497Z,12.80
2019-03-26T15:20:02.058Z,14.45
2019-03-26T15:25:26.936Z,11.08
2019-03-26T15:30:49.506Z,14.63
2019-03-26T15:36:11.596Z,13.25
2019-03-26T15:41:33.842Z,14.45
2019-03-26T15:46:55.913Z,13.60
2019-03-26T15:52:17.879Z,13.88
2019-03-26T15:57:40.459Z,12.70
2019-03-26T16:03:03.156Z,11.80
2019-03-26T16:08:25.288Z,9.85
2019-03-26T16:13:47.692Z,13.65
2019-03-26T16:19:10.080Z,10.88
2019-03-26T16:24:32.932Z,23.52
2019-03-26T16:29:54.817Z,20.17
2019-03-26T16:35:17.263Z,14.20
2019-03-26T16:40:42.552Z,14.55
2019-03-26T16:46:04.945Z,16.45
2019-03-26T16:51:35.168Z,17.42
2019-03-26T16:56:58.176Z,16.55
2019-03-26T17:02:20.779Z,17.05
2019-03-26T17:07:44.881Z,16.67
2019-03-26T17:13:07.247Z,17.17
2019-03-26T17:18:29.819Z,19.25
2019-03-26T17:23:52.547Z,20.70
2019-03-26T17:29:15.178Z,15.98
2019-03-26T17:34:37.025Z,13.53
2019-03-26T17:39:58.955Z,17.12
2019-03-26T17:45:21.965Z,16.00
2019-03-26T17:50:48.840Z,14.87
2019-03-26T17:56:12.467Z,15.48
2019-03-26T18:01:39.836Z,14.85
2019-03-26T18:07:05.224Z,15.98
2019-03-26T18:12:31.195Z,15.32
2019-03-26T18:17:50.711Z,16.00
2019-03-26T18:23:13.596Z,13.90
2019-03-26T18:28:35.912Z,17.65
2019-03-26T18:33:59.981Z,17.05
2019-03-26T18:39:23.187Z,18.90
2019-03-26T18:44:46.312Z,21.95
2019-03-26T18:50:08.699Z,21.73
2019-03-26T18:55:33.934Z,19.95
2019-03-26T19:00:57.164Z,20.70
2019-03-26T19:06:21.436Z,24.05
2019-03-26T19:11:49.924Z,21.87
2019-03-26T19:17:22.286Z,26.85
2019-03-26T19:22:48.436Z,23.67
2019-03-26T19:28:16.406Z,26.55
2019-03-26T19:33:47.019Z,24.35
2019-03-26T19:39:09.209Z,23.52
2019-03-26T19:44:37.104Z,24.05
2019-03-26T19:50:02.943Z,22.22
2019-03-26T19:55:28.441Z,22.22
2019-03-26T20:00:50.921Z,20.60
2019-03-26T20:06:16.969Z,22.00
2019-03-26T20:11:44.608Z,20.20
2019-03-26T20:17:11.742Z,20.20
2019-03-26T20:22:34.672Z,19.75
2019-03-26T20:28:01.088Z,18.82
2019-03-26T20:33:34.589Z,21.20
2019-03-26T20:39:02.676Z,20.02
2019-03-26T20:44:27.491Z,19.92
2019-03-26T20:49:50.858Z,20.50
2019-03-26T20:55:18.943Z,20.72
2019-03-26T21:00:46.886Z,20.50
2019-03-26T21:06:09.762Z,19.27
2019-03-26T21:11:31.839Z,18.48
2019-03-26T21:16:56.091Z,19.57
2019-03-26T21:22:19.951Z,18.70
2019-03-26T21:27:44.031Z,16.80
2019-03-26T21:33:09.814Z,15.72
2019-03-26T21:38:32.545Z,17.70
2019-03-26T21:44:04.593Z,19.10
2019-03-26T21:49:25.371Z,14.73
2019-03-26T21:54:49.378Z,13.68
2019-03-26T22:00:12.915Z,17.55
2019-03-26T22:05:36.407Z,15.30
2019-03-26T22:10:59.242Z,15.80
2019-03-26T22:16:22.924Z,15.65
2019-03-26T22:21:47.040Z,13.15
2019-03-26T22:27:10.871Z,15.08
2019-03-26T22:32:33.853Z,13.65
2019-03-26T22:37:59.793Z,12.70
2019-03-26T22:43:22.991Z,11.80
2019-03-26T22:48:45.862Z,11.88
2019-03-26T22:54:09.649Z,11.97
2019-03-26T22:59:34.120Z,10.70
2019-03-26T23:04:56.322Z,9.63
2019-03-26T23:10:21.083Z,9.20
2019-03-26T23:15:44.835Z,9.75
2019-03-26T23:21:08.219Z,10.03
2019-03-26T23:26:31.234Z,10.98
2019-03-26T23:31:53.899Z,11.10
2019-03-26T23:37:16.930Z,10.28
2019-03-26T23:42:38.761Z,9.45
2019-03-26T23:48:02.532Z,7.00
2019-03-26T23:53:26.354Z,7.67
2019-03-26T23:58:49.501Z,8.30
